createdAt,value
2024-01-22T00:00:43.892Z,100100.63
2024-01-22T00:03:12.326Z,100100.72
2024-01-22T00:05:40.229Z,100081.78
2024-01-22T00:08:08.974Z,100083.34
2024-01-22T00:10:37.276Z,100056.34
2024-01-22T00:13:06.976Z,100041.66
2024-01-22T00:19:20.295Z,100035.47
2024-01-22T00:21:47.998Z,100039.19
2024-01-22T00:24:16.322Z,100023.75
2024-01-22T00:26:44.037Z,100021.53
2024-01-22T00:29:13.104Z,100007.34
2024-01-22T00:31:41.303Z,100008.72
2024-01-22T00:34:09.441Z,100002.94
2024-01-22T00:36:37.273Z,99977.47
2024-01-22T00:39:05.001Z,99989.09
2024-01-22T00:41:32.714Z,99976.13
2024-01-22T00:44:01.277Z,99966.47
2024-01-22T00:46:31.065Z,99962.78
2024-01-22T00:49:00.455Z,99941.13
2024-01-22T00:51:28.132Z,99944.06
2024-01-22T00:53:56.311Z,99923.00
2024-01-22T00:56:24.612Z,99951.38
2024-01-22T00:58:53.342Z,99939.38
2024-01-22T01:01:21.037Z,99939.94
2024-01-22T01:03:50.203Z,99917.59
2024-01-22T01:06:18.410Z,99893.34
2024-01-22T01:08:46.187Z,99897.06
2024-01-22T01:11:14.312Z,99925.16
2024-01-22T01:13:41.998Z,99890.19
2024-01-22T01:16:09.797Z,99886.38
2024-01-22T01:18:38.476Z,99871.63
2024-01-22T01:21:07.596Z,99857.38
2024-01-22T01:23:36.345Z,99843.78
2024-01-22T01:26:04.047Z,99853.53
2024-01-22T01:28:32.361Z,99860.91
2024-01-22T01:31:00.042Z,99830.06
2024-01-22T01:33:27.895Z,99829.13
2024-01-22T01:35:56.365Z,99822.84
2024-01-22T01:38:25.447Z,99810.81
2024-01-22T01:40:53.352Z,99799.38
2024-01-22T01:43:21.018Z,99812.94
2024-01-22T01:45:49.375Z,99829.28
2024-01-22T01:48:17.399Z,99832.91
2024-01-22T01:50:46.432Z,99829.59
2024-01-22T01:53:15.601Z,99825.09
2024-01-22T01:55:46.395Z,99817.84
2024-01-22T01:58:15.699Z,99814.91
2024-01-22T02:00:46.491Z,99817.69
2024-01-22T02:03:14.857Z,99810.59
2024-01-22T02:05:43.442Z,99811.16
2024-01-22T02:08:11.119Z,99798.03
2024-01-22T02:10:39.417Z,99778.16
2024-01-22T02:13:10.292Z,99813.16
2024-01-22T02:15:39.386Z,99785.69
2024-01-22T02:18:07.831Z,99796.53
2024-01-22T02:26:28.401Z,99788.59
2024-01-22T02:28:56.091Z,99776.41
2024-01-22T02:31:24.534Z,99764.63
2024-01-22T02:33:52.340Z,99767.78
2024-01-22T02:36:20.492Z,99763.16
2024-01-22T02:38:48.225Z,99788.41
2024-01-22T02:41:16.442Z,99761.06
2024-01-22T02:43:45.495Z,99748.38
2024-01-22T02:46:13.433Z,99755.06
2024-01-22T02:48:41.165Z,99721.22
2024-01-22T02:51:09.934Z,99721.06
2024-01-22T02:53:38.439Z,99733.84
2024-01-22T02:56:07.024Z,99681.88
2024-01-22T02:58:35.450Z,99665.81
2024-01-22T03:01:04.682Z,99747.81
2024-01-22T03:03:33.556Z,99729.63
2024-01-22T03:06:01.418Z,99721.47
2024-01-22T03:08:29.442Z,99723.91
2024-01-22T03:10:58.095Z,99762.09
2024-01-22T03:13:26.450Z,99748.75
2024-01-22T03:15:54.149Z,99740.75
2024-01-22T03:18:23.520Z,99748.13
2024-01-22T03:20:51.460Z,99728.91
2024-01-22T03:23:19.488Z,99705.75
2024-01-22T03:25:47.374Z,99705.78
2024-01-22T03:28:15.461Z,99691.31
2024-01-22T03:30:43.165Z,99698.09
2024-01-22T03:33:11.613Z,99670.19
2024-01-22T03:35:40.812Z,99718.50
2024-01-22T03:38:09.489Z,99697.72
2024-01-22T03:40:37.134Z,99668.13
2024-01-22T03:43:05.510Z,99674.53
2024-01-22T03:45:33.189Z,99667.84
2024-01-22T03:48:01.028Z,99648.03
2024-01-22T03:50:29.593Z,99643.69
2024-01-22T03:52:58.676Z,99626.63
2024-01-22T03:55:27.520Z,99595.97
2024-01-22T03:57:55.335Z,99568.13
2024-01-22T04:00:23.598Z,99551.94
2024-01-22T04:02:52.569Z,99523.78
2024-01-22T04:05:20.478Z,99529.88
2024-01-22T04:07:48.141Z,99500.75
2024-01-22T04:10:17.545Z,99498.25
2024-01-22T04:12:45.242Z,99499.28
2024-01-22T04:15:13.591Z,99486.00
2024-01-22T04:17:42.027Z,99483.66
2024-01-22T04:20:12.534Z,99470.44
2024-01-22T04:22:40.221Z,99477.84
2024-01-22T04:25:08.582Z,99447.09
2024-01-22T04:27:38.567Z,99453.50
2024-01-22T04:30:19.621Z,99435.94
2024-01-22T04:32:47.501Z,99443.91
2024-01-22T04:35:15.556Z,99425.97
2024-01-22T04:37:43.330Z,99419.88
2024-01-22T04:40:12.583Z,99397.38
2024-01-22T04:42:42.419Z,99394.03
2024-01-22T04:45:11.590Z,99392.69
2024-01-22T04:47:39.475Z,99394.16
2024-01-22T04:50:08.579Z,99384.25
2024-01-22T04:52:36.301Z,99380.06
2024-01-22T04:55:10.250Z,99368.47
2024-01-22T04:57:45.645Z,99354.94
2024-01-22T05:00:14.265Z,99359.88
2024-01-22T05:02:42.626Z,99354.72
2024-01-22T05:05:10.664Z,99366.22
2024-01-22T05:07:39.585Z,99348.84
2024-01-22T05:10:10.722Z,99356.63
2024-01-22T05:12:39.597Z,99323.69
2024-01-22T05:15:10.810Z,99307.00
2024-01-22T05:17:39.688Z,99320.78
2024-01-22T05:20:08.854Z,99304.91
2024-01-22T05:22:37.602Z,99299.22
2024-01-22T05:25:05.946Z,99298.66
2024-01-22T05:27:33.632Z,99289.56
2024-01-22T05:30:01.704Z,99302.69
2024-01-22T05:32:33.503Z,99287.59
2024-01-22T05:35:01.734Z,99267.00
2024-01-22T05:37:29.492Z,99302.19
2024-01-22T05:39:59.934Z,99294.78
2024-01-22T05:42:27.681Z,99276.72
2024-01-22T05:44:55.694Z,99252.06
2024-01-22T05:47:23.434Z,99274.16
2024-01-22T05:49:52.658Z,99287.63
2024-01-22T05:52:21.205Z,99265.00
2024-01-22T05:54:48.846Z,99276.84
2024-01-22T05:57:16.730Z,99300.59
2024-01-22T05:59:44.465Z,99266.00
2024-01-22T06:02:16.679Z,99276.59
2024-01-22T06:04:44.350Z,99266.53
2024-01-22T06:07:13.683Z,99308.66
2024-01-22T06:09:41.622Z,99289.63
2024-01-22T06:12:09.876Z,99256.91
2024-01-22T06:14:37.680Z,99276.75
2024-01-22T06:17:05.752Z,99278.22
2024-01-22T06:19:33.700Z,99262.13
2024-01-22T06:22:01.390Z,99284.56
2024-01-22T06:24:37.684Z,99290.34
2024-01-22T06:27:05.682Z,99297.31
2024-01-22T06:29:36.919Z,99312.63
2024-01-22T06:32:09.271Z,99317.25
2024-01-22T06:34:37.894Z,99306.22
2024-01-22T06:37:06.358Z,99297.69
2024-01-22T06:39:34.690Z,99311.63
2024-01-22T06:42:03.983Z,99290.28
2024-01-22T06:44:32.720Z,99295.44
2024-01-22T06:47:00.478Z,99314.03
2024-01-22T06:49:28.906Z,99317.81
2024-01-22T06:51:56.771Z,99287.78
2024-01-22T06:54:24.764Z,99274.16
2024-01-22T06:56:52.482Z,99271.72
2024-01-22T06:59:21.525Z,99317.53
2024-01-22T07:01:49.733Z,99315.94
2024-01-22T07:04:17.553Z,99305.72
2024-01-22T07:06:45.851Z,99324.53
2024-01-22T07:09:13.642Z,99323.44
2024-01-22T07:11:43.782Z,99303.97
2024-01-22T07:14:11.469Z,99289.19
2024-01-22T07:16:41.749Z,99268.47
2024-01-22T07:19:09.602Z,99301.41
2024-01-22T07:21:37.740Z,99287.38
2024-01-22T07:24:05.951Z,99303.31
2024-01-22T07:26:34.722Z,99315.03
2024-01-22T07:29:02.976Z,99294.34
2024-01-22T07:31:30.751Z,99282.06
2024-01-22T07:33:59.994Z,99276.56
2024-01-22T07:36:28.812Z,99309.47
2024-01-22T07:38:58.868Z,99285.31
2024-01-22T07:41:26.963Z,99274.44
2024-01-22T07:43:54.804Z,99302.66
2024-01-22T07:46:22.518Z,99323.66
2024-01-22T07:48:51.920Z,99353.97
2024-01-22T07:51:21.900Z,99357.72
2024-01-22T07:53:49.855Z,99331.19
2024-01-22T07:56:17.678Z,99325.84
2024-01-22T07:58:47.789Z,99329.50
2024-01-22T08:01:15.796Z,99347.22
2024-01-22T08:03:43.867Z,99325.63
2024-01-22T08:06:12.094Z,99299.19
2024-01-22T08:08:46.562Z,99314.47
2024-01-22T08:11:14.934Z,99320.22
2024-01-22T08:13:42.796Z,99322.63
2024-01-22T08:16:10.534Z,99318.63
2024-01-22T08:18:39.040Z,99323.09
2024-01-22T08:21:07.109Z,99290.56
2024-01-22T08:23:34.818Z,99319.78
2024-01-22T08:26:04.759Z,99307.09
2024-01-22T08:28:32.522Z,99314.84
2024-01-22T08:31:00.837Z,99295.16
2024-01-22T08:33:28.669Z,99338.66
2024-01-22T08:35:57.161Z,99330.03
2024-01-22T08:38:25.850Z,99349.09
2024-01-22T08:40:53.581Z,99341.94
2024-01-22T08:43:23.848Z,99325.25
2024-01-22T08:45:52.017Z,99332.75
2024-01-22T08:48:31.995Z,99316.72
2024-01-22T08:50:59.850Z,99313.44
2024-01-22T08:53:27.575Z,99300.78
2024-01-22T08:55:59.191Z,99340.00
2024-01-22T08:58:28.655Z,99315.72
2024-01-22T09:00:57.037Z,99346.41
2024-01-22T09:03:26.317Z,99342.69
2024-01-22T09:05:54.925Z,99332.47
2024-01-22T09:08:22.665Z,99338.38
2024-01-22T09:10:50.867Z,99331.25
2024-01-22T09:13:18.541Z,99349.69
2024-01-22T09:15:47.892Z,99317.06
2024-01-22T09:18:16.603Z,99333.97
2024-01-22T09:20:44.959Z,99324.81
2024-01-22T09:23:13.642Z,99295.34
2024-01-22T09:25:43.885Z,99294.25
2024-01-22T09:28:12.052Z,99297.88
2024-01-22T09:30:39.890Z,99298.38
2024-01-22T09:33:11.031Z,99295.81
2024-01-22T09:35:41.030Z,99302.72
2024-01-22T09:38:08.886Z,99301.13
2024-01-22T09:40:36.905Z,99285.25
2024-01-22T09:43:05.779Z,99290.41
2024-01-22T09:45:34.904Z,99295.53
2024-01-22T09:48:03.802Z,99320.00
2024-01-22T09:50:33.955Z,99343.84
2024-01-22T09:53:03.332Z,99382.44
2024-01-22T09:55:30.982Z,99329.94
2024-01-22T09:58:01.897Z,99323.66
2024-01-22T10:00:30.855Z,99331.81
2024-01-22T10:03:01.617Z,99319.84
2024-01-22T10:05:29.551Z,99331.56
2024-01-22T10:07:58.954Z,99327.72
2024-01-22T10:10:26.875Z,99340.22
2024-01-22T10:13:06.306Z,99336.78
2024-01-22T10:15:34.794Z,99296.06
2024-01-22T10:18:14.227Z,99320.19
2024-01-22T10:20:44.089Z,99306.78
2024-01-22T10:23:13.991Z,99316.00
2024-01-22T10:25:44.044Z,99318.31
2024-01-22T10:28:14.047Z,99319.81
2024-01-22T10:30:42.784Z,99350.88
2024-01-22T10:33:13.074Z,99328.31
2024-01-22T10:35:41.150Z,99308.56
2024-01-22T10:38:10.974Z,99313.00
2024-01-22T10:40:40.840Z,99328.84
2024-01-22T10:43:28.577Z,99310.84
2024-01-22T10:45:58.363Z,99312.00
2024-01-22T10:48:38.609Z,99309.88
2024-01-22T10:51:12.617Z,99309.81
2024-01-22T10:53:42.641Z,99289.31
2024-01-22T10:56:18.932Z,99279.44
2024-01-22T10:58:49.726Z,99281.44
2024-01-22T11:01:21.046Z,99285.25
2024-01-22T11:03:51.901Z,99288.81
2024-01-22T11:06:23.024Z,99288.59
2024-01-22T11:08:52.100Z,99329.72
2024-01-22T11:11:25.405Z,99306.97
2024-01-22T11:13:57.034Z,99316.06
2024-01-22T11:16:25.138Z,99316.91
2024-01-22T11:19:01.342Z,99300.00
2024-01-22T11:21:34.489Z,99332.56
2024-01-22T11:24:14.276Z,99362.53
2024-01-22T11:26:47.952Z,99303.38
2024-01-22T11:29:17.543Z,99270.50
2024-01-22T11:31:47.981Z,99259.16
2024-01-22T11:34:48.421Z,99215.75
2024-01-22T11:37:34.767Z,99233.69
2024-01-22T11:40:05.054Z,99232.06
2024-01-22T11:42:34.896Z,99213.50
2024-01-22T11:45:12.110Z,99208.38
2024-01-22T11:47:40.737Z,99212.69
2024-01-22T11:50:09.743Z,99202.84
2024-01-22T11:52:39.124Z,99224.50
2024-01-22T11:55:09.148Z,99203.59
2024-01-22T11:57:53.822Z,99227.41
2024-01-22T12:00:24.086Z,99299.34
2024-01-22T12:02:53.299Z,99324.28
2024-01-22T12:05:21.743Z,99337.16
2024-01-22T12:07:51.054Z,99382.44
2024-01-22T12:10:22.735Z,99401.16
2024-01-22T12:12:54.070Z,99387.94
2024-01-22T12:15:22.828Z,99395.44
2024-01-22T12:17:55.293Z,99390.63
2024-01-22T12:20:24.337Z,99417.66
2024-01-22T12:22:59.146Z,99416.69
2024-01-22T12:25:35.752Z,99401.63
2024-01-22T12:28:12.883Z,99411.59
2024-01-22T12:30:43.652Z,99395.28
2024-01-22T12:33:23.103Z,99425.31
2024-01-22T12:35:53.187Z,99415.44
2024-01-22T12:38:24.820Z,99407.03
2024-01-22T12:41:01.429Z,99445.53
2024-01-22T12:43:32.101Z,99429.91
2024-01-22T12:46:07.359Z,99480.69
2024-01-22T12:48:36.346Z,99482.09
2024-01-22T12:51:11.841Z,99469.44
2024-01-22T12:53:42.169Z,99465.72
2024-01-22T12:56:10.206Z,99468.88
2024-01-22T12:58:40.338Z,99485.25
2024-01-22T13:01:08.753Z,99487.28
2024-01-22T13:03:37.251Z,99511.75
2024-01-22T13:06:05.196Z,99545.47
2024-01-22T13:08:34.925Z,99531.72
2024-01-22T13:11:04.154Z,99546.00
2024-01-22T13:13:32.150Z,99560.63
2024-01-22T13:16:13.953Z,99571.44
2024-01-22T13:18:47.583Z,99569.25
2024-01-22T13:21:17.680Z,99611.28
2024-01-22T13:23:48.097Z,99644.34
2024-01-22T13:26:36.147Z,99620.00
2024-01-22T13:29:27.718Z,99629.16
2024-01-22T13:31:58.402Z,99651.03
2024-01-22T13:34:28.482Z,99629.03
2024-01-22T13:36:56.372Z,99645.50
2024-01-22T13:39:24.217Z,99633.03
2024-01-22T13:41:52.035Z,99632.97
2024-01-22T13:44:20.185Z,99634.06
2024-01-22T13:46:47.966Z,99670.19
2024-01-22T13:49:17.353Z,99652.41
2024-01-22T13:51:45.211Z,99665.94
2024-01-22T13:54:13.043Z,99666.78
2024-01-22T13:56:42.235Z,99692.84
2024-01-22T13:59:10.904Z,99681.34
2024-01-22T14:01:39.275Z,99680.19
2024-01-22T14:04:07.039Z,99661.63
2024-01-22T14:06:36.336Z,99670.22
2024-01-22T14:09:04.603Z,99680.94
2024-01-22T14:11:33.193Z,99687.13
2024-01-22T14:14:01.231Z,99697.25
2024-01-22T14:16:29.230Z,99697.94
2024-01-22T14:18:57.137Z,99716.53
2024-01-22T14:21:25.730Z,99722.25
2024-01-22T14:23:56.223Z,99729.25
2024-01-22T14:26:24.040Z,99731.19
2024-01-22T14:28:51.766Z,99739.06
2024-01-22T14:31:20.221Z,99720.31
2024-01-22T14:33:49.481Z,99744.31
2024-01-22T14:36:18.287Z,99744.84
2024-01-22T14:38:47.499Z,99763.03
2024-01-22T14:41:18.268Z,99762.13
2024-01-22T14:43:45.998Z,99769.94
2024-01-22T14:46:14.261Z,99766.13
2024-01-22T14:48:42.214Z,99763.28
2024-01-22T14:51:10.271Z,99754.16
2024-01-22T14:53:38.230Z,99768.78
2024-01-22T14:56:09.245Z,99802.25
2024-01-22T14:58:39.957Z,99807.28
2024-01-22T15:01:07.650Z,99794.31
2024-01-22T15:03:36.444Z,99819.09
2024-01-22T15:06:04.436Z,99795.38
2024-01-22T15:08:51.274Z,99821.00
2024-01-22T15:11:18.936Z,99830.75
2024-01-22T15:13:48.280Z,99827.00
2024-01-22T15:16:16.476Z,99849.09
2024-01-22T15:18:44.509Z,99843.66
2024-01-22T15:21:12.835Z,99840.59
2024-01-22T15:23:41.279Z,99835.66
2024-01-22T15:26:09.244Z,99823.81
2024-01-22T15:28:39.929Z,99836.69
2024-01-22T15:31:11.323Z,99862.13
2024-01-22T15:33:39.185Z,99837.91
2024-01-22T15:36:09.358Z,99872.84
2024-01-22T15:38:37.072Z,99860.84
2024-01-22T15:41:07.287Z,99852.88
2024-01-22T15:43:35.035Z,99856.06
2024-01-22T15:46:02.835Z,99863.75
2024-01-22T15:48:32.376Z,99857.88
2024-01-22T15:51:02.259Z,99874.72
2024-01-22T15:53:30.317Z,99887.03
2024-01-22T15:55:58.059Z,99893.56
2024-01-22T15:58:26.359Z,99876.94
2024-01-22T16:00:54.047Z,99886.78
2024-01-22T16:03:21.735Z,99903.66
2024-01-22T16:05:51.352Z,99902.38
2024-01-22T16:08:20.769Z,99917.84
2024-01-22T16:10:49.366Z,99905.19
2024-01-22T16:13:19.891Z,99918.72
2024-01-22T16:15:48.327Z,99896.84
2024-01-22T16:18:16.404Z,99915.41
2024-01-22T16:20:45.363Z,99929.25
2024-01-22T16:23:14.676Z,99947.16
2024-01-22T16:25:43.362Z,99931.56
2024-01-22T16:28:11.401Z,99949.94
2024-01-22T16:30:43.407Z,99948.59
2024-01-22T16:33:14.325Z,99955.63
2024-01-22T16:35:42.357Z,99954.00
2024-01-22T16:38:10.268Z,99980.91
2024-01-22T16:40:39.379Z,99968.25
2024-01-22T16:43:07.100Z,99973.22
2024-01-22T16:45:35.417Z,99979.25
2024-01-22T16:48:03.194Z,99984.69
2024-01-22T16:50:31.389Z,99964.50
2024-01-22T16:52:59.172Z,99984.50
2024-01-22T16:55:27.375Z,99987.88
2024-01-22T16:57:56.422Z,99994.31
2024-01-22T17:00:24.275Z,99995.03
2024-01-22T17:02:52.401Z,100010.63
2024-01-22T17:05:20.215Z,100000.34
2024-01-22T17:07:49.415Z,100013.78
2024-01-22T17:10:17.713Z,100004.00
2024-01-22T17:12:45.895Z,100007.94
2024-01-22T17:15:16.548Z,100037.41
2024-01-22T17:17:44.340Z,100013.38
2024-01-22T17:20:13.411Z,100043.78
2024-01-22T17:22:41.564Z,100041.63
2024-01-22T17:25:11.737Z,100044.00
2024-01-22T17:27:40.074Z,100059.25
2024-01-22T17:30:09.056Z,100047.81
2024-01-22T17:32:38.770Z,100036.19
2024-01-22T17:35:08.110Z,100053.41
2024-01-22T17:37:37.706Z,100062.69
2024-01-22T17:40:06.033Z,100078.66
2024-01-22T17:42:36.454Z,100070.34
2024-01-22T17:45:04.454Z,100095.84
2024-01-22T17:47:32.558Z,100076.19
2024-01-22T17:50:01.986Z,100080.63
2024-01-22T17:52:30.434Z,100075.50
2024-01-22T17:54:58.070Z,100078.09
2024-01-22T17:57:26.546Z,100099.22
2024-01-22T17:59:54.683Z,100112.09
2024-01-22T18:02:22.492Z,100107.94
2024-01-22T18:04:50.140Z,100121.91
2024-01-22T18:07:19.500Z,100103.34
2024-01-22T18:09:47.309Z,100106.19
2024-01-22T18:12:15.000Z,100125.66
2024-01-22T18:14:43.922Z,100124.28
2024-01-22T18:17:12.145Z,100125.66
2024-01-22T18:19:39.907Z,100109.88
2024-01-22T18:22:11.491Z,100145.31
2024-01-22T18:24:40.568Z,100145.34
2024-01-22T18:27:08.436Z,100131.63
2024-01-22T18:29:37.488Z,100152.44
2024-01-22T18:32:05.825Z,100137.16
2024-01-22T18:34:33.590Z,100129.63
2024-01-22T18:37:03.515Z,100160.91
2024-01-22T18:39:31.193Z,100136.66
2024-01-22T18:42:00.528Z,100161.41
2024-01-22T18:44:28.181Z,100166.88
2024-01-22T18:46:56.505Z,100151.34
2024-01-22T18:49:24.296Z,100162.44
2024-01-22T18:51:52.520Z,100169.19
2024-01-22T18:54:23.224Z,100143.50
2024-01-22T18:56:51.645Z,100157.88
2024-01-22T18:59:20.783Z,100151.59
2024-01-22T19:01:49.534Z,100167.75
2024-01-22T19:04:17.217Z,100170.63
2024-01-22T19:06:45.529Z,100164.19
2024-01-22T19:09:14.783Z,100186.03
2024-01-22T19:11:43.514Z,100200.00
2024-01-22T19:14:11.717Z,100181.06
2024-01-22T19:16:41.682Z,100189.81
2024-01-22T19:19:09.551Z,100204.72
2024-01-22T19:21:37.673Z,100207.75
2024-01-22T19:24:06.461Z,100206.13
2024-01-22T19:26:35.639Z,100220.91
2024-01-22T19:29:03.834Z,100208.19
2024-01-22T19:31:34.553Z,100212.31
2024-01-22T19:36:50.669Z,100216.75
2024-01-22T19:39:18.980Z,100208.56
2024-01-22T19:41:47.641Z,100216.00
2024-01-22T19:44:15.575Z,100234.13
2024-01-22T19:46:44.630Z,100262.72
2024-01-22T19:49:13.786Z,100255.84
2024-01-22T19:51:41.515Z,100249.63
2024-01-22T19:54:09.619Z,100237.22
2024-01-22T19:56:43.365Z,100251.44
2024-01-22T19:59:11.175Z,100251.13
2024-01-22T20:01:39.605Z,100239.03
2024-01-22T20:04:07.470Z,100248.78
2024-01-22T20:06:36.701Z,100261.75
2024-01-22T20:09:04.673Z,100267.28
2024-01-22T20:11:33.623Z,100275.41
2024-01-22T20:14:02.630Z,100271.59
2024-01-22T20:16:31.474Z,100282.91
2024-01-22T20:18:59.413Z,100272.16
2024-01-22T20:21:27.623Z,100286.53
2024-01-22T20:24:04.501Z,100279.34
2024-01-22T20:26:36.304Z,100281.16
2024-01-22T20:29:04.640Z,100279.38
2024-01-22T20:31:32.323Z,100263.41
2024-01-22T20:34:00.823Z,100291.88
2024-01-22T20:36:29.053Z,100280.38
2024-01-22T20:38:58.684Z,100290.63
2024-01-22T20:41:26.505Z,100296.00
2024-01-22T20:43:54.667Z,100290.13
2024-01-22T20:46:22.301Z,100289.31
2024-01-22T20:48:50.847Z,100286.88
2024-01-22T20:51:18.808Z,100297.97
2024-01-22T20:53:46.652Z,100295.78
2024-01-22T20:56:18.372Z,100295.63
2024-01-22T20:58:48.829Z,100304.38
2024-01-22T21:01:17.834Z,100302.38
2024-01-22T21:03:45.963Z,100289.09
2024-01-22T21:06:15.937Z,100305.56
2024-01-22T21:08:43.775Z,100301.53
2024-01-22T21:11:13.680Z,100291.22
2024-01-22T21:13:42.890Z,100303.06
2024-01-22T21:16:11.694Z,100297.41
2024-01-22T21:18:52.709Z,100285.06
2024-01-22T21:21:23.757Z,100301.44
2024-01-22T21:23:54.288Z,100318.31
2024-01-22T21:26:23.047Z,100296.19
2024-01-22T21:28:52.683Z,100307.75
2024-01-22T21:31:20.787Z,100312.56
2024-01-22T21:33:50.149Z,100309.13
2024-01-22T21:36:18.000Z,100296.66
2024-01-22T21:38:45.693Z,100278.88
2024-01-22T21:41:14.684Z,100302.03
2024-01-22T21:43:42.353Z,100309.28
2024-01-22T21:46:11.705Z,100289.47
2024-01-22T21:48:39.447Z,100316.28
2024-01-22T21:51:07.243Z,100312.06
2024-01-22T21:53:58.719Z,100292.75
2024-01-22T21:56:28.575Z,100284.50
2024-01-22T21:58:56.745Z,100297.59
2024-01-22T22:04:19.303Z,100304.53
2024-01-22T22:06:46.839Z,100284.75
2024-01-22T22:09:15.084Z,100296.38
2024-01-22T22:11:45.005Z,100283.13
2024-01-22T22:14:13.376Z,100294.25
2024-01-22T22:16:42.751Z,100284.44
2024-01-22T22:19:10.849Z,100281.31
2024-01-22T22:21:48.925Z,100303.56
2024-01-22T22:24:16.794Z,100293.09
2024-01-22T22:26:45.231Z,100292.28
2024-01-22T22:29:12.905Z,100285.31
2024-01-22T22:31:42.828Z,100322.72
2024-01-22T22:34:10.830Z,100327.78
2024-01-22T22:36:44.805Z,100322.50
2024-01-22T22:39:12.798Z,100289.09
2024-01-22T22:41:41.951Z,100304.44
2024-01-22T22:44:09.771Z,100284.88
2024-01-22T22:46:42.827Z,100272.34
2024-01-22T22:49:11.028Z,100270.56
2024-01-22T22:51:42.698Z,100278.28
2024-01-22T22:54:10.836Z,100251.97
2024-01-22T22:56:38.577Z,100242.84
2024-01-22T22:59:07.826Z,100161.06
2024-01-22T23:01:35.596Z,100198.19
2024-01-22T23:04:05.321Z,100217.63
2024-01-22T23:06:33.222Z,100232.19
2024-01-22T23:09:02.080Z,100258.84
2024-01-22T23:11:29.776Z,100258.94
2024-01-22T23:13:57.710Z,100278.72
2024-01-22T23:16:25.826Z,100274.19
2024-01-22T23:18:54.079Z,100293.28
2024-01-22T23:21:23.623Z,100293.09
2024-01-22T23:23:51.871Z,100279.06
2024-01-22T23:26:19.596Z,100283.69
2024-01-22T23:28:47.837Z,100298.88
2024-01-22T23:31:15.515Z,100289.94
2024-01-22T23:33:43.925Z,100270.28
2024-01-22T23:36:14.986Z,100289.69
2024-01-22T23:38:44.834Z,100276.31
2024-01-22T23:41:12.515Z,100302.84
2024-01-22T23:43:40.835Z,100304.06
2024-01-22T23:46:29.933Z,100312.72
2024-01-22T23:48:57.926Z,100322.88
2024-01-22T23:51:25.761Z,100303.13
2024-01-22T23:53:55.023Z,100306.78
2024-01-22T23:56:22.873Z,100309.66
2024-01-22T23:58:51.351Z,100318.44
